• Join FlightAware (Why Join?)
  • Login
  • US Flag 
07:40AM EDT


 

Airport Tracker/Info


-or-


 

Live Flight TrackerFlight Track Log ✈ N165RD ✈ 30-Apr-2013 ✈ KISN - KFAR

Flight Track Log - Related Links

Times and Time Zones

All times are in EDT time to prevent confusion due to time zone crossing. See the N165RD flight status page for this flight to view local times or setup timezone preferences in your user account.

Time Position Orientation Groundspeed Altitude Reporting Facility
EDT Latitude Longitude Course Direction KTS MPH feet Rate Location/Type
10:57PM 48.1231 -103.6636 101° East 231 266 8,700  Level Salt Lake Center
10:58PM 48.1022 -103.5697 108° East 235 270 11,400 2,640 Climbing Salt Lake Center
10:59PM 48.0881 -103.4700 102° East 240 276 14,200 2,340 Climbing Salt Lake Center
11:00PM 48.0739 -103.3692 102° East 243 280 16,200 2,220 Climbing Salt Lake Center
11:01PM 48.0561 -103.2439 102° East 250 288 18,800 2,100 Climbing Salt Lake Center
11:02PM 48.0653 -102.9808 101° East  Level FlightAware Approximate
11:02PM 48.0400 -103.1375 103° East 256 295 20,600  Level Salt Lake Center
11:03PM 48.0244 -103.0283 102° East 262 302 22,300 1,620 Climbing Salt Lake Center
11:04PM 48.0083 -102.9164 102° East 268 308 24,000 1,500 Climbing Salt Lake Center
11:05PM 47.9911 -102.8083 103° East 271 312 25,400 1,200 Climbing Minneapolis Center
11:06PM 47.9736 -102.6919 103° East 277 319 26,500 1,140 Climbing Minneapolis Center
11:07PM 47.9533 -102.5672 104° East 299 344 27,800 1,080 Climbing Minneapolis Center
11:08PM 47.9358 -102.4444 102° East 301 346 28,700 540 Climbing Minneapolis Center
11:09PM 47.9178 -102.3161 102° East 310 357 29,000 120 Climbing Minneapolis Center
11:10PM 47.8956 -102.1733 103° East 339 390 29,000  Level Minneapolis Center
11:11PM 47.8697 -102.0236 104° East 363 418 29,000  Level Minneapolis Center
11:12PM 47.8453 -101.8692 103° East 377 434 29,000  Level Minneapolis Center
11:13PM 47.8203 -101.7128 103° East 385 443 29,000 -60 Level Minneapolis Center
11:14PM 47.7953 -101.5550 103° East 389 448 28,900  Descending Minneapolis Center
11:15PM 47.7639 -101.3633 104° East 396 456 29,000  Climbing Minneapolis Center
11:16PM 47.7411 -101.2031 102° East 396 456 29,000  Level Minneapolis Center
11:17PM 47.7150 -101.0419 103° East 400 460 29,000  Level Minneapolis Center
11:18PM 47.6853 -100.8739 105° East 403 464 29,000  Level Minneapolis Center
11:19PM 47.6606 -100.7100 103° East 407 468 29,000 -60 Level Minneapolis Center
11:20PM 47.6292 -100.5475 106° East 409 471 28,900  Descending Minneapolis Center
11:21PM 47.6028 -100.3856 104° East 407 468 29,000  Climbing Minneapolis Center
11:22PM 47.5728 -100.2208 105° East 413 475 29,000 -60 Level Minneapolis Center
11:24PM 47.5539 -100.1003 103° East  Level FlightAware Approximate
11:24PM 47.5167 -99.8981 103° East 407 468 28,900  Level Minneapolis Center
11:25PM 47.4872 -99.7369 105° East 408 470 29,000  Climbing Minneapolis Center
11:26PM 47.4581 -99.5772 105° East 405 466 29,000  Level Minneapolis Center
11:27PM 47.4292 -99.4194 105° East 402 463 29,000  Level Minneapolis Center
11:28PM 47.4000 -99.2597 105° East 404 465 29,000  Level Minneapolis Center
11:29PM 47.3706 -99.1019 105° East 402 463 29,000  Level Minneapolis Center
11:31PM 47.3408 -98.9444 106° East 401 461 29,000  Level Minneapolis Center
11:32PM 47.3053 -98.7553 105° East 402 463 29,000 -60 Level Minneapolis Center
11:33PM 47.2764 -98.6000 105° East 398 458 28,900 -60 Descending Minneapolis Center
11:34PM 47.2472 -98.4472 106° East 394 453 28,900  Level Minneapolis Center
11:35PM 47.2183 -98.2958 106° East 390 449 29,000 -300 Climbing Minneapolis Center
11:36PM 47.1883 -98.1458 106° East 388 447 28,300 -1,680 Descending Minneapolis Center
11:37PM 47.1569 -97.9856 106° East 406 467 25,700 -2,220 Descending Minneapolis Center
11:38PM 47.1181 -97.8272 110° East 416 479 23,800 -2,220 Descending Minneapolis Center
11:39PM 47.0739 -97.6811 114° Southeast 398 458 21,300 -2,760 Descending Minneapolis Center
11:40PM 47.0239 -97.5106 113° Southeast 398 458 18,300 -2,640 Descending Minneapolis Center
11:41PM 46.9878 -97.3875 113° Southeast 347 399 16,000 -3,000 Descending Minneapolis Center
11:42PM 46.9481 -97.2536 113° Southeast 345 397 12,300 -3,540 Descending Minneapolis Center
11:43PM 46.9075 -97.1303 116° Southeast 327 376 8,900 -3,300 Descending Minneapolis Center
11:44PM 46.8669 -97.0256 119° Southeast 310 357 5,700 -2,580 Descending Minneapolis Center
11:45PM 46.8311 -96.9244 117° Southeast 266 306 3,800 -1,920 Descending Minneapolis Center